Terminal Aerodrome Forecast
Issued by NWS

Home | Current Version | Previous Version | Text Only | Print | Product List | Glossary On
Versions: 1 2 3 4 5 6 7 8 9 10 11 12 13 14 15 16
157
FTUS43 KDLH 151936 AAA
TAFBRD
TAF AMD
KBRD 151936Z 1520/1618 34016KT P6SM SCT025 BKN090
      TEMPO 1520/1522 1 1/2SM -SN SCT008 BKN025
     FM160100 34011KT P6SM VCSH SCT025 BKN050
     FM160500 34006KT P6SM SCT025 BKN050
     FM161500 32005KT P6SM SCT050=

USA.gov is the U.S. government's official web portal to all federal, state and local government web resources and services.